createdAt,value
2023-02-13T00:01:21.011Z,3.47
2023-02-13T00:03:22.800Z,3.33
2023-02-13T00:05:24.469Z,4.85
2023-02-13T00:07:26.135Z,3.25
2023-02-13T00:09:27.860Z,2.97
2023-02-13T00:11:29.570Z,3.55
2023-02-13T00:13:31.269Z,3.45
2023-02-13T00:15:33.619Z,3.38
2023-02-13T00:17:35.575Z,3.78
2023-02-13T00:19:37.182Z,3.50
2023-02-13T00:21:38.871Z,3.63
2023-02-13T00:23:40.632Z,3.75
2023-02-13T00:25:42.289Z,3.38
2023-02-13T00:27:44.062Z,3.42
2023-02-13T00:29:45.870Z,3.25
2023-02-13T00:31:47.615Z,3.47
2023-02-13T00:33:49.396Z,3.22
2023-02-13T00:35:51.103Z,3.13
2023-02-13T00:37:52.719Z,2.95
2023-02-13T00:39:54.446Z,6.13
2023-02-13T00:41:56.052Z,3.53
2023-02-13T00:43:57.660Z,3.50
2023-02-13T00:45:59.407Z,3.05
2023-02-13T00:48:01.087Z,4.68
2023-02-13T00:50:02.698Z,3.70
2023-02-13T00:52:04.528Z,3.65
2023-02-13T00:54:06.144Z,3.35
2023-02-13T00:56:07.958Z,3.35
2023-02-13T00:58:09.729Z,3.30
2023-02-13T01:00:11.981Z,3.50
2023-02-13T01:02:13.638Z,3.30
2023-02-13T01:04:15.308Z,4.30
2023-02-13T01:06:16.972Z,4.25
2023-02-13T01:08:20.270Z,3.38
2023-02-13T01:10:21.979Z,3.42
2023-02-13T01:12:23.619Z,3.60
2023-02-13T01:14:25.373Z,3.70
2023-02-13T01:16:27.118Z,4.25
2023-02-13T01:18:28.865Z,3.92
2023-02-13T01:20:30.857Z,3.25
2023-02-13T01:22:32.853Z,3.63
2023-02-13T01:24:34.577Z,3.50
2023-02-13T01:26:36.507Z,3.92
2023-02-13T01:28:38.217Z,3.90
2023-02-13T01:30:40.055Z,3.55
2023-02-13T01:32:43.521Z,3.75
2023-02-13T01:34:45.199Z,4.05
2023-02-13T01:36:46.841Z,4.55
2023-02-13T01:38:52.204Z,3.97
2023-02-13T01:40:54.627Z,3.53
2023-02-13T01:42:56.374Z,3.33
2023-02-13T01:45:04.384Z,3.50
2023-02-13T01:47:06.015Z,3.80
2023-02-13T01:49:18.535Z,3.60
2023-02-13T01:51:25.272Z,4.03
2023-02-13T01:53:40.722Z,3.50
2023-02-13T01:55:52.081Z,3.40
2023-02-13T01:58:00.593Z,3.20
2023-02-13T02:00:09.970Z,3.58
2023-02-13T02:02:11.964Z,3.65
2023-02-13T02:04:22.501Z,3.95
2023-02-13T02:06:28.347Z,3.25
2023-02-13T02:08:31.428Z,3.58
2023-02-13T02:10:33.604Z,3.50
2023-02-13T02:12:44.118Z,3.30
2023-02-13T02:14:45.881Z,3.90
2023-02-13T02:16:47.553Z,3.50
2023-02-13T02:18:49.169Z,3.40
2023-02-13T02:21:09.014Z,3.63
2023-02-13T02:23:34.921Z,3.65
2023-02-13T02:25:58.553Z,3.80
2023-02-13T02:28:51.802Z,3.40
2023-02-13T02:31:18.346Z,3.97
2023-02-13T02:33:23.042Z,3.53
2023-02-13T02:36:06.208Z,3.53
2023-02-13T02:38:26.004Z,3.40
2023-02-13T02:40:35.921Z,3.65
2023-02-13T02:43:00.897Z,3.70
2023-02-13T02:45:08.354Z,3.58
2023-02-13T02:47:49.158Z,3.53
2023-02-13T02:50:03.528Z,3.83
2023-02-13T02:52:13.021Z,4.40
2023-02-13T02:55:04.041Z,4.00
2023-02-13T02:57:24.389Z,3.47
2023-02-13T02:59:48.433Z,3.75
2023-02-13T03:02:11.773Z,3.70
2023-02-13T03:04:44.898Z,3.97
2023-02-13T03:06:54.083Z,3.30
2023-02-13T03:09:19.047Z,3.60
2023-02-13T03:11:40.458Z,3.45
2023-02-13T03:13:48.012Z,3.47
2023-02-13T03:16:12.394Z,3.67
2023-02-13T03:18:32.833Z,3.58
2023-02-13T03:21:12.415Z,3.53
2023-02-13T03:23:20.765Z,3.20
2023-02-13T03:25:43.889Z,3.90
2023-02-13T03:28:18.838Z,3.90
2023-02-13T03:30:20.601Z,3.63
2023-02-13T03:32:28.144Z,3.70
2023-02-13T03:34:59.441Z,3.67
2023-02-13T03:37:25.802Z,3.90
2023-02-13T03:39:52.374Z,3.65
2023-02-13T03:42:02.550Z,3.60
2023-02-13T03:44:22.707Z,3.37
2023-02-13T03:46:28.436Z,7.18
2023-02-13T03:48:54.430Z,3.65
2023-02-13T03:50:59.432Z,4.32
2023-02-13T03:53:09.268Z,3.45
2023-02-13T03:55:36.893Z,3.42
2023-02-13T03:58:00.341Z,3.55
2023-02-13T04:00:05.744Z,3.30
2023-02-13T04:02:14.639Z,3.65
2023-02-13T04:04:33.905Z,3.35
2023-02-13T04:06:58.580Z,3.75
2023-02-13T04:09:00.296Z,3.20
2023-02-13T04:11:16.503Z,3.40
2023-02-13T04:13:31.798Z,3.53
2023-02-13T04:16:18.847Z,3.50
2023-02-13T04:18:24.699Z,3.60
2023-02-13T04:20:31.093Z,3.67
2023-02-13T04:22:32.807Z,5.47
2023-02-13T04:24:34.459Z,3.08
2023-02-13T04:26:42.576Z,6.80
2023-02-13T04:28:44.424Z,4.22
2023-02-13T04:30:46.348Z,4.63
2023-02-13T04:32:48.228Z,3.58
2023-02-13T04:34:49.898Z,4.65
2023-02-13T04:36:51.552Z,4.60
2023-02-13T04:38:53.379Z,5.00
2023-02-13T04:40:55.399Z,6.25
2023-02-13T04:42:57.213Z,5.13
2023-02-13T04:44:58.954Z,3.40
2023-02-13T04:47:00.648Z,5.05
2023-02-13T04:49:02.265Z,3.67
2023-02-13T04:51:04.075Z,5.68
2023-02-13T04:53:05.759Z,7.00
2023-02-13T04:55:07.789Z,5.70
2023-02-13T04:57:09.609Z,7.50
2023-02-13T04:59:11.303Z,8.48
2023-02-13T05:01:14.943Z,8.00
2023-02-13T05:03:16.657Z,5.72
2023-02-13T05:05:19.565Z,4.40
2023-02-13T05:07:21.189Z,5.55
2023-02-13T05:09:22.939Z,4.57
2023-02-13T05:11:24.659Z,6.57
2023-02-13T05:13:26.326Z,3.42
2023-02-13T05:15:28.227Z,3.50
2023-02-13T05:17:29.914Z,6.00
2023-02-13T05:19:31.885Z,3.22
2023-02-13T05:21:52.158Z,3.60
2023-02-13T05:23:53.851Z,3.07
2023-02-13T05:25:55.498Z,3.25
2023-02-13T05:27:57.219Z,5.00
2023-02-13T05:29:58.973Z,5.18
2023-02-13T05:32:00.861Z,3.67
2023-02-13T05:34:02.577Z,3.03
2023-02-13T05:36:04.482Z,8.02
2023-02-13T05:38:06.061Z,3.33
2023-02-13T05:40:08.843Z,3.30
2023-02-13T05:42:10.709Z,3.50
2023-02-13T05:44:13.386Z,3.22
2023-02-13T05:46:15.102Z,3.65
2023-02-13T05:48:16.786Z,3.17
2023-02-13T05:50:18.512Z,3.72
2023-02-13T05:52:20.126Z,8.40
2023-02-13T05:54:21.794Z,11.38
2023-02-13T05:56:23.744Z,13.80
2023-02-13T05:58:25.387Z,12.02
2023-02-13T06:00:27.100Z,11.18
2023-02-13T06:02:28.931Z,15.23
2023-02-13T06:04:30.611Z,8.60
2023-02-13T06:06:32.246Z,11.40
2023-02-13T06:08:33.887Z,7.15
2023-02-13T06:10:35.586Z,8.07
2023-02-13T06:12:38.103Z,8.82
2023-02-13T06:14:39.779Z,6.38
2023-02-13T06:16:41.873Z,8.50
2023-02-13T06:18:43.621Z,6.10
2023-02-13T06:20:45.656Z,6.82
2023-02-13T06:22:53.502Z,11.68
2023-02-13T06:24:55.130Z,10.63
2023-02-13T06:26:57.858Z,5.18
2023-02-13T06:28:59.746Z,6.95
2023-02-13T06:31:02.035Z,13.27
2023-02-13T06:33:03.912Z,4.97
2023-02-13T06:35:06.611Z,8.10
2023-02-13T06:37:08.231Z,5.57
2023-02-13T06:39:11.237Z,4.13
2023-02-13T06:41:12.890Z,5.65
2023-02-13T06:43:15.160Z,11.98
2023-02-13T06:45:16.980Z,13.73
2023-02-13T06:47:18.698Z,12.07
2023-02-13T06:49:20.308Z,23.67
2023-02-13T06:51:21.913Z,7.28
2023-02-13T06:53:25.497Z,19.38
2023-02-13T06:55:27.595Z,9.73
2023-02-13T06:57:32.957Z,12.20
2023-02-13T06:59:34.600Z,8.75
2023-02-13T07:01:36.258Z,6.60
2023-02-13T07:03:37.891Z,10.85
2023-02-13T07:05:41.695Z,11.18
2023-02-13T07:07:43.718Z,6.53
2023-02-13T07:09:45.392Z,7.13
2023-02-13T07:11:47.072Z,8.93
2023-02-13T07:13:48.780Z,7.03
2023-02-13T07:15:50.432Z,9.20
2023-02-13T07:18:00.012Z,6.63
2023-02-13T07:20:01.909Z,7.03
2023-02-13T07:22:03.615Z,6.68
2023-02-13T07:24:08.003Z,8.43
2023-02-13T07:26:11.053Z,4.43
2023-02-13T07:28:13.465Z,6.07
2023-02-13T07:30:15.308Z,6.45
2023-02-13T07:32:16.964Z,8.95
2023-02-13T07:34:18.608Z,7.32
2023-02-13T07:36:20.235Z,10.68
2023-02-13T07:38:21.875Z,4.38
2023-02-13T07:40:23.533Z,6.72
2023-02-13T07:42:25.212Z,4.95
2023-02-13T07:44:26.874Z,6.25
2023-02-13T07:46:28.541Z,6.03
2023-02-13T07:48:31.473Z,6.60
2023-02-13T07:50:33.149Z,5.30
2023-02-13T07:52:36.974Z,5.35
2023-02-13T07:54:47.158Z,4.90
2023-02-13T07:56:48.998Z,4.78
2023-02-13T07:58:50.607Z,4.97
2023-02-13T08:00:52.277Z,6.05
2023-02-13T08:02:53.960Z,7.20
2023-02-13T08:04:55.604Z,5.78
2023-02-13T08:06:57.217Z,9.50
2023-02-13T08:09:17.441Z,4.32
2023-02-13T08:11:49.803Z,5.97
2023-02-13T08:13:51.721Z,3.97
2023-02-13T08:15:53.384Z,5.55
2023-02-13T08:17:55.129Z,4.28
2023-02-13T08:19:56.860Z,6.05
2023-02-13T08:21:58.620Z,5.53
2023-02-13T08:24:00.291Z,5.95
2023-02-13T08:26:02.517Z,4.03
2023-02-13T08:28:05.277Z,6.68
2023-02-13T08:30:07.586Z,4.15
2023-02-13T08:32:09.530Z,8.20
2023-02-13T08:34:11.453Z,3.72
2023-02-13T08:36:13.112Z,3.50
2023-02-13T08:38:14.807Z,4.05
2023-02-13T08:40:16.499Z,5.82
2023-02-13T08:42:18.227Z,4.05
2023-02-13T08:44:19.930Z,5.55
2023-02-13T08:46:22.311Z,5.13
2023-02-13T08:48:23.967Z,3.85
2023-02-13T08:50:27.160Z,3.65
2023-02-13T08:52:29.504Z,6.00
2023-02-13T08:54:31.226Z,7.18
2023-02-13T08:56:32.890Z,3.97
2023-02-13T08:58:34.573Z,3.60
2023-02-13T09:00:36.185Z,3.72
2023-02-13T09:02:37.897Z,3.65
2023-02-13T09:04:39.566Z,3.20
2023-02-13T09:06:41.626Z,4.10
2023-02-13T09:08:43.412Z,4.85
2023-02-13T09:10:45.061Z,3.40
2023-02-13T09:12:53.006Z,3.30
2023-02-13T09:14:54.642Z,3.47
2023-02-13T09:16:56.632Z,3.38
2023-02-13T09:18:58.274Z,6.05
2023-02-13T09:21:01.777Z,3.10
2023-02-13T09:23:03.670Z,3.30
2023-02-13T09:25:06.758Z,3.30
2023-02-13T09:27:08.847Z,3.03
2023-02-13T09:29:10.546Z,3.33
2023-02-13T09:31:20.271Z,3.08
2023-02-13T09:33:22.164Z,3.35
2023-02-13T09:35:24.243Z,4.10
2023-02-13T09:37:26.968Z,2.92
2023-02-13T09:39:29.062Z,3.50
2023-02-13T09:41:40.721Z,4.20
2023-02-13T09:43:50.746Z,2.95
2023-02-13T09:45:55.402Z,3.22
2023-02-13T09:47:57.148Z,3.28
2023-02-13T09:50:16.223Z,3.00
2023-02-13T09:52:17.896Z,3.17
2023-02-13T09:54:19.534Z,2.90
2023-02-13T09:56:30.360Z,5.20
2023-02-13T09:58:51.195Z,2.80
2023-02-13T10:00:57.935Z,4.22
2023-02-13T10:02:59.549Z,3.88
2023-02-13T10:05:21.773Z,2.72
2023-02-13T10:07:52.537Z,2.65
2023-02-13T10:10:30.440Z,2.33
2023-02-13T10:12:58.675Z,3.88
2023-02-13T10:15:12.242Z,3.05
2023-02-13T10:17:33.967Z,2.90
2023-02-13T10:19:43.851Z,2.80
2023-02-13T10:21:55.803Z,3.55
2023-02-13T10:24:26.510Z,2.55
2023-02-13T10:26:43.028Z,2.95
2023-02-13T10:29:09.053Z,4.88
2023-02-13T10:31:19.161Z,2.42
2023-02-13T10:33:34.637Z,2.70
2023-02-13T10:35:36.875Z,2.85
2023-02-13T10:37:39.071Z,2.58
2023-02-13T10:39:43.517Z,2.70
2023-02-13T10:42:08.039Z,2.42
2023-02-13T10:44:12.765Z,2.50
2023-02-13T10:46:34.085Z,2.50
2023-02-13T10:49:10.444Z,2.90
2023-02-13T10:51:20.247Z,2.55
2023-02-13T10:53:50.023Z,2.35
2023-02-13T10:56:34.386Z,2.65
2023-02-13T10:58:57.013Z,2.25
2023-02-13T11:01:09.598Z,2.40
2023-02-13T11:03:21.257Z,2.28
2023-02-13T11:05:26.210Z,2.28
2023-02-13T11:07:30.138Z,2.10
2023-02-13T11:09:40.301Z,2.13
2023-02-13T11:11:45.746Z,2.20
2023-02-13T11:13:48.370Z,2.13
2023-02-13T11:16:03.653Z,3.60
2023-02-13T11:18:20.606Z,2.25
2023-02-13T11:20:25.912Z,2.30
2023-02-13T11:22:36.243Z,2.45
2023-02-13T11:24:41.350Z,1.90
2023-02-13T11:26:43.671Z,2.25
2023-02-13T11:28:54.805Z,2.38
2023-02-13T11:33:27.885Z,1.75
2023-02-13T11:35:38.968Z,2.40
2023-02-13T11:39:44.406Z,1.92
2023-02-13T11:41:47.402Z,2.05
2023-02-13T11:44:01.030Z,2.10
2023-02-13T11:46:12.846Z,2.17
2023-02-13T11:48:23.138Z,1.90
2023-02-13T11:50:31.332Z,2.28
2023-02-13T11:52:35.976Z,1.98
2023-02-13T11:54:44.558Z,1.83
2023-02-13T11:57:06.428Z,1.73
2023-02-13T11:59:14.004Z,1.80
2023-02-13T12:01:21.568Z,2.05
2023-02-13T12:03:32.195Z,2.40
2023-02-13T12:05:33.913Z,1.98
2023-02-13T12:07:35.577Z,3.30
2023-02-13T12:09:40.067Z,1.83
2023-02-13T12:11:48.582Z,2.10
2023-02-13T12:13:51.961Z,2.10
2023-02-13T12:16:18.737Z,2.08
2023-02-13T12:18:29.574Z,1.83
2023-02-13T12:21:00.564Z,2.10
2023-02-13T12:23:27.662Z,3.42
2023-02-13T12:26:04.770Z,2.60
2023-02-13T12:28:21.289Z,2.20
2023-02-13T12:31:01.202Z,2.65
2023-02-13T12:33:31.474Z,2.15
2023-02-13T12:35:45.466Z,2.00
2023-02-13T12:38:07.230Z,2.47
2023-02-13T12:40:27.390Z,2.20
2023-02-13T12:43:06.286Z,2.20
2023-02-13T12:45:16.194Z,2.25
2023-02-13T12:47:19.145Z,2.10
2023-02-13T12:49:20.776Z,2.13
2023-02-13T12:51:41.072Z,2.25
2023-02-13T12:54:11.742Z,2.63
2023-02-13T12:56:13.362Z,2.00
2023-02-13T12:58:41.448Z,2.10
2023-02-13T13:00:53.951Z,2.40
2023-02-13T13:03:29.515Z,1.95
2023-02-13T13:06:09.004Z,2.30
2023-02-13T13:08:33.234Z,2.92
2023-02-13T13:11:12.239Z,2.13
2023-02-13T13:13:27.825Z,2.53
2023-02-13T13:15:53.161Z,2.25
2023-02-13T13:18:07.144Z,2.20
2023-02-13T13:20:08.817Z,2.30
2023-02-13T13:22:28.780Z,1.88
2023-02-13T13:25:10.340Z,2.20
2023-02-13T13:27:28.398Z,2.25
2023-02-13T13:29:39.942Z,1.90
2023-02-13T13:31:44.731Z,2.00
2023-02-13T13:33:47.967Z,2.20
2023-02-13T13:35:59.364Z,1.75
2023-02-13T13:38:29.062Z,2.10
2023-02-13T13:40:50.223Z,2.30
2023-02-13T13:45:17.995Z,2.30
2023-02-13T13:47:31.378Z,2.20
2023-02-13T13:49:33.032Z,2.13
2023-02-13T13:51:34.766Z,1.92
2023-02-13T13:53:57.074Z,2.08
2023-02-13T13:56:04.902Z,2.53
2023-02-13T13:58:41.008Z,2.05
2023-02-13T14:00:42.671Z,2.75
2023-02-13T14:02:50.453Z,2.20
2023-02-13T14:05:18.144Z,2.17
2023-02-13T14:07:24.472Z,1.67
2023-02-13T14:09:43.411Z,2.38
2023-02-13T14:11:47.214Z,2.13
2023-02-13T14:13:50.309Z,2.00
2023-02-13T14:15:52.963Z,2.63
2023-02-13T14:17:55.304Z,2.25
2023-02-13T14:19:58.329Z,1.83
2023-02-13T14:22:18.697Z,2.50
2023-02-13T14:24:22.679Z,1.95
2023-02-13T14:26:34.324Z,2.00
2023-02-13T14:28:36.422Z,1.90
2023-02-13T14:30:40.395Z,2.05
2023-02-13T14:32:45.472Z,2.47
2023-02-13T14:34:54.567Z,1.90
2023-02-13T14:37:11.108Z,1.95
2023-02-13T14:39:30.869Z,2.10
2023-02-13T14:41:49.209Z,1.92
2023-02-13T14:43:52.759Z,2.20
2023-02-13T14:45:59.948Z,1.75
2023-02-13T14:48:13.556Z,2.08
2023-02-13T14:50:21.843Z,1.98
2023-02-13T14:52:43.181Z,1.80
2023-02-13T14:54:59.943Z,1.95
2023-02-13T14:57:26.492Z,2.00
2023-02-13T14:59:35.236Z,1.92
2023-02-13T15:01:46.538Z,2.17
2023-02-13T15:03:54.733Z,1.80
2023-02-13T15:06:10.793Z,2.00
2023-02-13T15:08:16.534Z,1.73
2023-02-13T15:10:41.336Z,2.00
2023-02-13T15:12:43.293Z,2.00
2023-02-13T15:14:44.900Z,1.77
2023-02-13T15:16:51.862Z,2.75
2023-02-13T15:18:55.258Z,1.90
2023-02-13T15:21:00.237Z,1.58
2023-02-13T15:23:02.704Z,2.10
2023-02-13T15:25:05.952Z,2.10
2023-02-13T15:27:15.306Z,1.63
2023-02-13T15:29:29.411Z,2.05
2023-02-13T15:31:35.465Z,2.10
2023-02-13T15:33:48.879Z,2.03
2023-02-13T15:36:19.346Z,2.67
2023-02-13T15:38:25.757Z,1.83
2023-02-13T15:40:36.241Z,1.52
2023-02-13T15:42:39.396Z,2.05
2023-02-13T15:44:41.137Z,1.90
2023-02-13T15:46:45.118Z,2.10
2023-02-13T15:48:47.619Z,2.00
2023-02-13T15:50:49.365Z,2.20
2023-02-13T15:52:51.650Z,2.05
2023-02-13T15:54:55.620Z,2.17
2023-02-13T15:57:00.864Z,2.05
2023-02-13T15:59:03.893Z,2.00
2023-02-13T16:01:08.121Z,2.42
2023-02-13T16:03:17.080Z,1.70
2023-02-13T16:05:29.416Z,2.03
2023-02-13T16:07:48.171Z,1.90
2023-02-13T16:09:49.838Z,1.90
2023-02-13T16:11:51.979Z,1.90
2023-02-13T16:14:24.121Z,1.67
2023-02-13T16:16:26.668Z,1.70
2023-02-13T16:18:28.333Z,2.00
2023-02-13T16:20:32.968Z,1.58
2023-02-13T16:22:38.428Z,1.85
2023-02-13T16:24:40.084Z,1.92
2023-02-13T16:26:43.768Z,2.08
2023-02-13T16:28:48.913Z,1.75
2023-02-13T16:31:04.274Z,1.77
2023-02-13T16:33:14.963Z,1.83
2023-02-13T16:35:30.617Z,2.05
2023-02-13T16:37:34.178Z,1.85
2023-02-13T16:39:35.823Z,1.80
2023-02-13T16:41:37.464Z,1.77
2023-02-13T16:43:41.156Z,1.60
2023-02-13T16:45:42.911Z,2.00
2023-02-13T16:47:44.634Z,2.08
2023-02-13T16:49:53.892Z,43.58
2023-02-13T16:52:00.255Z,42.72
2023-02-13T16:54:10.796Z,12.65
2023-02-13T16:56:12.634Z,22.67
2023-02-13T16:58:16.268Z,17.85
2023-02-13T17:00:25.556Z,16.83
2023-02-13T17:02:32.158Z,10.38
2023-02-13T17:04:33.829Z,12.68
2023-02-13T17:06:35.478Z,13.90
2023-02-13T17:08:37.192Z,31.80
2023-02-13T17:10:41.528Z,15.57
2023-02-13T17:12:44.454Z,39.58
2023-02-13T17:14:46.638Z,46.28
2023-02-13T17:16:48.868Z,37.05
2023-02-13T17:18:50.621Z,60.17
2023-02-13T17:20:52.749Z,62.47
2023-02-13T17:22:56.513Z,55.88
2023-02-13T17:25:00.205Z,59.80
2023-02-13T17:27:01.826Z,54.63
2023-02-13T17:29:03.598Z,62.20
2023-02-13T17:31:11.130Z,44.10
2023-02-13T17:33:17.845Z,47.35
2023-02-13T17:35:19.557Z,40.85
2023-02-13T17:37:26.828Z,39.47
2023-02-13T17:39:28.469Z,46.35
2023-02-13T17:41:30.134Z,41.80
2023-02-13T17:43:31.750Z,35.92
2023-02-13T17:45:34.634Z,32.95
2023-02-13T17:47:36.397Z,34.17
2023-02-13T17:49:38.006Z,32.90
2023-02-13T17:51:40.878Z,33.55
2023-02-13T17:53:42.646Z,32.17
2023-02-13T17:55:44.255Z,27.23
2023-02-13T17:57:45.944Z,25.05
2023-02-13T17:59:47.724Z,26.15
2023-02-13T18:01:49.523Z,27.73
2023-02-13T18:03:51.187Z,22.90
2023-02-13T18:05:52.967Z,25.02
2023-02-13T18:07:54.888Z,31.35
2023-02-13T18:09:56.494Z,33.60
2023-02-13T18:12:05.304Z,42.75
2023-02-13T18:14:07.448Z,32.85
2023-02-13T18:16:09.922Z,31.65
2023-02-13T18:18:13.336Z,24.30
2023-02-13T18:20:18.789Z,22.27
2023-02-13T18:22:20.386Z,22.25
2023-02-13T18:24:22.061Z,28.38
2023-02-13T18:26:23.882Z,19.08
2023-02-13T18:28:25.510Z,28.55
2023-02-13T18:30:27.651Z,27.58
2023-02-13T18:32:29.342Z,18.88
2023-02-13T18:34:31.417Z,20.35
2023-02-13T18:36:33.156Z,35.25
2023-02-13T18:38:34.798Z,18.92
2023-02-13T18:40:36.493Z,25.88
2023-02-13T18:42:38.973Z,20.13
2023-02-13T18:44:41.220Z,19.95
2023-02-13T18:46:42.898Z,22.25
2023-02-13T18:48:44.543Z,16.85
2023-02-13T18:50:46.507Z,16.58
2023-02-13T18:52:48.194Z,14.65
2023-02-13T18:54:50.037Z,18.27
2023-02-13T18:56:51.720Z,16.55
2023-02-13T18:58:53.452Z,18.10
2023-02-13T19:00:55.248Z,16.88
2023-02-13T19:02:58.595Z,19.77
2023-02-13T19:05:01.187Z,15.40
2023-02-13T19:07:02.823Z,14.50
2023-02-13T19:09:04.461Z,13.90
2023-02-13T19:11:07.969Z,13.00
2023-02-13T19:13:09.659Z,12.93
2023-02-13T19:15:11.425Z,13.63
2023-02-13T19:17:13.085Z,16.02
2023-02-13T19:19:14.738Z,16.95
2023-02-13T19:21:16.581Z,12.75
2023-02-13T19:23:18.286Z,13.70
2023-02-13T19:25:21.970Z,14.57
2023-02-13T19:27:23.658Z,8.93
2023-02-13T19:29:25.386Z,13.32
2023-02-13T19:31:30.589Z,12.15
2023-02-13T19:33:32.706Z,13.93
2023-02-13T19:35:34.417Z,15.90
2023-02-13T19:37:43.918Z,10.20
2023-02-13T19:39:46.050Z,10.65
2023-02-13T19:41:47.676Z,11.48
2023-02-13T19:43:50.957Z,10.38
2023-02-13T19:45:52.621Z,9.07
2023-02-13T19:47:55.135Z,10.88
2023-02-13T19:49:56.734Z,9.18
2023-02-13T19:51:58.379Z,8.98
2023-02-13T19:54:10.435Z,6.32
2023-02-13T19:56:13.022Z,10.73
2023-02-13T19:58:15.063Z,11.73
2023-02-13T20:00:17.341Z,9.25
2023-02-13T20:02:19.401Z,10.80
2023-02-13T20:04:21.112Z,8.93
2023-02-13T20:06:31.419Z,21.08
2023-02-13T20:08:33.800Z,15.85
2023-02-13T20:10:35.495Z,11.80
2023-02-13T20:12:37.285Z,11.98
2023-02-13T20:14:39.153Z,9.52
2023-02-13T20:16:42.756Z,13.60
2023-02-13T20:18:44.412Z,11.85
2023-02-13T20:20:46.598Z,14.63
2023-02-13T20:22:49.002Z,9.45
2023-02-13T20:24:50.666Z,10.93
2023-02-13T20:26:52.409Z,6.88
2023-02-13T20:28:56.052Z,11.50
2023-02-13T20:30:58.172Z,8.75
2023-02-13T20:33:00.049Z,8.98
2023-02-13T20:35:01.718Z,12.75
2023-02-13T20:37:03.433Z,9.57
2023-02-13T20:39:06.913Z,13.68
2023-02-13T20:41:10.365Z,14.43
2023-02-13T20:43:12.058Z,8.90
2023-02-13T20:45:13.684Z,8.65
2023-02-13T20:47:15.414Z,7.45
2023-02-13T20:49:21.626Z,8.82
2023-02-13T20:51:23.284Z,10.23
2023-02-13T20:53:25.104Z,10.10
2023-02-13T20:55:26.865Z,9.30
2023-02-13T20:57:28.509Z,9.85
2023-02-13T20:59:30.246Z,10.25
2023-02-13T21:01:40.326Z,9.30
2023-02-13T21:03:42.936Z,6.90
2023-02-13T21:05:44.822Z,10.43
2023-02-13T21:07:47.017Z,9.60
2023-02-13T21:09:48.722Z,8.23
2023-02-13T21:11:50.437Z,9.60
2023-02-13T21:13:52.280Z,7.82
2023-02-13T21:15:58.895Z,8.63
2023-02-13T21:18:01.718Z,14.75
2023-02-13T21:20:05.471Z,7.03
2023-02-13T21:22:13.241Z,10.35
2023-02-13T21:24:21.333Z,10.20
2023-02-13T21:26:23.715Z,7.90
2023-02-13T21:28:25.360Z,10.48
2023-02-13T21:30:27.175Z,11.07
2023-02-13T21:32:29.036Z,14.10
2023-02-13T21:34:30.720Z,7.90
2023-02-13T21:36:33.710Z,8.98
2023-02-13T21:38:36.911Z,7.57
2023-02-13T21:40:38.517Z,7.18
2023-02-13T21:42:40.163Z,5.63
2023-02-13T21:44:41.919Z,12.00
2023-02-13T21:46:44.816Z,5.43
2023-02-13T21:48:47.487Z,6.47
2023-02-13T21:50:49.186Z,6.22
2023-02-13T21:52:50.812Z,6.60
2023-02-13T21:54:52.399Z,7.60
2023-02-13T21:56:54.041Z,7.78
2023-02-13T21:58:56.789Z,6.93
2023-02-13T22:00:58.893Z,9.25
2023-02-13T22:03:00.754Z,6.68
2023-02-13T22:05:03.378Z,9.48
2023-02-13T22:07:04.992Z,7.03
2023-02-13T22:09:09.763Z,6.93
2023-02-13T22:11:11.462Z,7.78
2023-02-13T22:13:13.116Z,8.38
2023-02-13T22:15:14.832Z,8.10
2023-02-13T22:17:16.457Z,7.38
2023-02-13T22:19:18.879Z,5.15
2023-02-13T22:21:23.026Z,5.05
2023-02-13T22:23:24.827Z,5.43
2023-02-13T22:25:26.469Z,5.35
2023-02-13T22:27:28.121Z,6.53
2023-02-13T22:29:29.837Z,6.75
2023-02-13T22:31:32.077Z,6.90
2023-02-13T22:33:34.257Z,4.85
2023-02-13T22:35:39.761Z,6.88
2023-02-13T22:37:41.473Z,5.38
2023-02-13T22:39:43.155Z,4.93
2023-02-13T22:41:45.670Z,5.72
2023-02-13T22:43:48.047Z,8.05
2023-02-13T22:45:49.858Z,5.93
2023-02-13T22:47:51.478Z,5.07
2023-02-13T22:49:53.112Z,4.85
2023-02-13T22:51:54.745Z,6.50
2023-02-13T22:53:58.267Z,5.18
2023-02-13T22:56:00.728Z,4.60
2023-02-13T22:58:02.384Z,4.60
2023-02-13T23:00:08.701Z,4.35
2023-02-13T23:02:10.658Z,4.30
2023-02-13T23:04:12.602Z,5.25
2023-02-13T23:06:15.390Z,4.97
2023-02-13T23:08:17.858Z,4.70
2023-02-13T23:10:19.677Z,4.82
2023-02-13T23:12:36.307Z,4.35
2023-02-13T23:14:38.036Z,5.50
2023-02-13T23:16:59.843Z,5.15
2023-02-13T23:19:01.490Z,4.70
2023-02-13T23:21:07.503Z,4.78
2023-02-13T23:23:10.395Z,5.25
2023-02-13T23:25:12.047Z,5.45
2023-02-13T23:27:13.711Z,4.57
2023-02-13T23:29:15.429Z,5.00
2023-02-13T23:31:17.155Z,5.95
2023-02-13T23:33:18.865Z,4.35
2023-02-13T23:35:21.161Z,4.78
2023-02-13T23:37:22.743Z,5.13
2023-02-13T23:39:24.397Z,4.35
2023-02-13T23:41:26.029Z,3.80
2023-02-13T23:43:27.632Z,3.80
2023-02-13T23:45:29.274Z,4.28
2023-02-13T23:47:30.881Z,6.47
2023-02-13T23:49:32.678Z,6.18
2023-02-13T23:51:34.369Z,4.82
2023-02-13T23:53:36.119Z,4.13
2023-02-13T23:55:37.804Z,4.65
2023-02-13T23:57:39.426Z,5.13
2023-02-13T23:59:41.166Z,3.75
